METAR EVRA 181120Z 29005KT 230V350 9999 FEW024 SCT033CB 12/09 Q1004 NOSIG =

Controllers Online

PositionControllerOnline
No controllers currently online

Booked ATC Today

* Times are UTC

The time is now

UTC: 

Local: 

Latvia vACC on twitter

Official vACC of:

  

Latvia vACC on Facebook